Estación Meteorológica Peña el Pijo (Robertgarden) [ 11/19/19 10:49:34 CET ]

Fecha Hora Presion(HPa) Temp (°C) Humedad % Rocio (°C) Viento ( m/s) Direccion Lluvia 1Hora(mm) Lluvia 24H(mm) LLuvia Total(mm)
2019-May-25 01:01:23 1007.600 21.8 79 18.0         318.05
2019-May-25 02:01:56 1007.500 20.4 81 17.0         318.05
2019-May-25 03:01:43 1007.200 30.4 85 27.6         318.05
2019-May-25 04:01:42 1006.900 25.9 86 23.4         318.05
2019-May-25 05:01:39 1006.500 24.1 85 21.4         318.05
2019-May-25 06:01:41 1006.800 29.1 88 26.9         318.05
2019-May-25 07:01:35 1007.200 20.8 86 18.3         318.05
2019-May-25 08:01:46 1007.300 18.2 87 16.0         318.05
2019-May-25 09:01:46 1007.700 16.4 83 13.5         318.05
2019-May-25 10:01:52 1007.700 17.6 68 11.6         318.05
2019-May-25 11:01:53 1007.900 19.5 50 8.8         318.05
2019-May-25 12:01:49 1008.100 20.3 45 7.9         318.05
2019-May-25 13:01:46 1008.200 22.9 39 8.2         318.05
2019-May-25 14:01:43 1008.300 21.6 41 7.8         318.05
2019-May-25 15:01:40 1007.800 21.7 40 7.5         318.05
2019-May-25 16:01:46 1007.700 24.3 36 8.2 0.6 NNE     318.05
2019-May-25 17:01:36 1007.700 21.4 40 7.3         318.05
2019-May-25 18:01:38 1007.800 21.9 36 6.1         318.05
2019-May-25 19:01:50 1008.000 21.5 40 7.3         318.05
2019-May-25 20:01:46 1008.400 19.2 47 7.6         318.05
2019-May-25 21:01:43 1008.800 17.6 55 8.4         318.05
2019-May-25 22:01:56 1009.200 19.9 63 12.6         318.05
2019-May-25 23:01:43 1009.800 17.6 70 12.1         318.05

Temperatura Máxima:30°    Temperatura Mínima:16°
Presión Máxima:1009.800 Hpa    Presión Mínima:1006.500 Hpa


Volver